Terminal Aerodrome Forecast
Issued by NWS

Home | Current Version | Previous Version | Text Only | Print | Product List | Glossary On
Versions: 1 2 3 4 5 6 7 8 9 10 11 12 13
000
FTUS46 KLOX 242300 AAA
TAFPMD
TAF AMD
KPMD 242354Z 2500/2524 32008KT P6SM SKC
     FM250300 24010KT P6SM SKC
     FM251000 VRB04KT P6SM SKC
     FM251800 24012KT P6SM SCT200
     FM252100 25012G20KT P6SM SCT200=

USA.gov is the U.S. government's official web portal to all federal, state and local government web resources and services.